aviador You're here:

KPEZ Decoded Metar

in _UNIDENTIFIED
Report Time2017-11-24 20:15:00
UTC Time2017-11-24 20:30:58
Flight Rules vfr VFR
Wind200° at 08 kt
W.Decomp.*RWY 16: 6.6 kt HW 4.5 kt RCW
W.Rank200° ranks 28
Current wind is above 200° avg. (5.4)
Visibility9999 m
Phenomena:N/A
Clouds:N/A
Expected CloudBase > 8,800 ft AGL from Temp-Dew spread
CeilingNone
Temp24°C (ISA +10)
Dew Point02°C (24% RH)
AAT19.5°C
QNH1013 hPa
Density Alt1,677 ft
Elevation433 ft
Report Wrong Elevation
Raw Report
KPEZ 242015Z AUTO 20008KT 10SM CLR 24/02 A2992 RMK AO2
T02430019=

Extra information for KPEZ:More info

Metar Taf Metar & Taf Last 4 Metars F.Rules Stats Wind Profile Meteogram Temp Stats Metar ALERT Operation Metar Decoded Social comments